Terminal Aerodrome Forecast
Issued by NWS

Home | Current Version | Previous Version | Text Only | Print | Product List | Glossary On
Versions: 1 2 3 4 5 6 7 8 9 10 11 12 13 14 15 16 17 18 19 20 21 22 23 24 25 26 27 28 29 30 31 32 33 34
000
FTPA31 PHFO 271100
TAFJRF
TAF
PHJR 271137Z 2712/2812 02005KT P6SM VCSH SCT025 BKN050
     FM272000 05012KT P6SM VCSH SCT025 BKN050
     FM280400 05005KT P6SM SCT025 SCT050=

USA.gov is the U.S. government's official web portal to all federal, state and local government web resources and services.